sensor_id;sensor_type;location;lat;lon;timestamp;temperature;humidity
435;DHT22;204;48.942;9.256;2023-02-23T00:01:38;9.80;1.00
435;DHT22;204;48.942;9.256;2023-02-23T00:04:04;9.80;1.00
435;DHT22;204;48.942;9.256;2023-02-23T00:06:32;9.90;1.00
435;DHT22;204;48.942;9.256;2023-02-23T00:08:58;9.90;1.00
435;DHT22;204;48.942;9.256;2023-02-23T00:11:26;9.90;1.00
435;DHT22;204;48.942;9.256;2023-02-23T00:13:53;9.90;1.00
435;DHT22;204;48.942;9.256;2023-02-23T00:16:22;10.00;1.00
435;DHT22;204;48.942;9.256;2023-02-23T00:18:53;10.00;1.00
435;DHT22;204;48.942;9.256;2023-02-23T00:21:27;10.00;1.00
435;DHT22;204;48.942;9.256;2023-02-23T00:24:05;10.00;1.00
435;DHT22;204;48.942;9.256;2023-02-23T00:26:33;10.00;1.00
435;DHT22;204;48.942;9.256;2023-02-23T00:29:01;10.10;1.00
435;DHT22;204;48.942;9.256;2023-02-23T00:31:27;10.10;1.00
435;DHT22;204;48.942;9.256;2023-02-23T00:33:58;10.10;1.00
435;DHT22;204;48.942;9.256;2023-02-23T00:36:27;10.10;1.00
435;DHT22;204;48.942;9.256;2023-02-23T00:38:54;10.10;1.00
435;DHT22;204;48.942;9.256;2023-02-23T00:41:20;10.10;1.00
435;DHT22;204;48.942;9.256;2023-02-23T00:43:56;10.10;1.00
435;DHT22;204;48.942;9.256;2023-02-23T00:46:25;10.10;1.00
435;DHT22;204;48.942;9.256;2023-02-23T00:48:55;10.20;1.00
435;DHT22;204;48.942;9.256;2023-02-23T00:51:23;10.20;1.00
435;DHT22;204;48.942;9.256;2023-02-23T00:53:52;10.20;1.00
435;DHT22;204;48.942;9.256;2023-02-23T00:56:18;10.20;1.00
435;DHT22;204;48.942;9.256;2023-02-23T00:58:44;10.20;1.00
435;DHT22;204;48.942;9.256;2023-02-23T01:01:11;10.20;1.00
435;DHT22;204;48.942;9.256;2023-02-23T01:03:39;10.20;1.00
435;DHT22;204;48.942;9.256;2023-02-23T01:06:08;10.20;1.00
435;DHT22;204;48.942;9.256;2023-02-23T01:08:36;10.20;1.00
435;DHT22;204;48.942;9.256;2023-02-23T01:11:12;10.20;1.00
435;DHT22;204;48.942;9.256;2023-02-23T01:13:40;10.30;1.00
435;DHT22;204;48.942;9.256;2023-02-23T01:16:09;10.30;1.00
435;DHT22;204;48.942;9.256;2023-02-23T01:18:35;10.20;1.00
435;DHT22;204;48.942;9.256;2023-02-23T01:21:02;10.20;1.00
435;DHT22;204;48.942;9.256;2023-02-23T01:23:30;10.20;1.00
435;DHT22;204;48.942;9.256;2023-02-23T01:25:55;10.10;1.00
435;DHT22;204;48.942;9.256;2023-02-23T01:28:21;10.20;1.00
435;DHT22;204;48.942;9.256;2023-02-23T01:30:48;10.20;1.00
435;DHT22;204;48.942;9.256;2023-02-23T01:33:14;10.20;1.00
435;DHT22;204;48.942;9.256;2023-02-23T01:35:39;10.20;1.00
435;DHT22;204;48.942;9.256;2023-02-23T01:38:05;10.20;1.00
435;DHT22;204;48.942;9.256;2023-02-23T01:40:31;10.20;1.00
435;DHT22;204;48.942;9.256;2023-02-23T01:43:17;10.20;1.00
435;DHT22;204;48.942;9.256;2023-02-23T01:45:45;10.10;1.00
435;DHT22;204;48.942;9.256;2023-02-23T01:48:19;10.10;1.00
435;DHT22;204;48.942;9.256;2023-02-23T01:50:55;10.10;1.00
435;DHT22;204;48.942;9.256;2023-02-23T01:53:23;10.10;1.00
435;DHT22;204;48.942;9.256;2023-02-23T01:55:53;10.10;1.00
435;DHT22;204;48.942;9.256;2023-02-23T01:58:21;10.10;1.00
435;DHT22;204;48.942;9.256;2023-02-23T02:00:50;10.10;1.00
435;DHT22;204;48.942;9.256;2023-02-23T02:03:27;10.10;1.00
435;DHT22;204;48.942;9.256;2023-02-23T02:05:56;10.20;1.00
435;DHT22;204;48.942;9.256;2023-02-23T02:08:23;10.20;1.00
435;DHT22;204;48.942;9.256;2023-02-23T02:10:51;10.20;1.00
435;DHT22;204;48.942;9.256;2023-02-23T02:13:25;10.20;1.00
435;DHT22;204;48.942;9.256;2023-02-23T02:16:15;10.10;1.00
435;DHT22;204;48.942;9.256;2023-02-23T02:19:01;10.20;1.00
435;DHT22;204;48.942;9.256;2023-02-23T02:24:51;10.10;1.00
435;DHT22;204;48.942;9.256;2023-02-23T02:30:38;10.10;1.00
435;DHT22;204;48.942;9.256;2023-02-23T02:41:25;10.00;1.00
435;DHT22;204;48.942;9.256;2023-02-23T02:46:33;10.00;1.00
435;DHT22;204;48.942;9.256;2023-02-23T02:52:19;9.90;1.00
435;DHT22;204;48.942;9.256;2023-02-23T02:54:50;9.90;1.00
435;DHT22;204;48.942;9.256;2023-02-23T02:57:19;9.90;1.00
435;DHT22;204;48.942;9.256;2023-02-23T02:59:48;9.80;1.00
435;DHT22;204;48.942;9.256;2023-02-23T03:02:38;9.90;1.00
435;DHT22;204;48.942;9.256;2023-02-23T03:05:25;9.90;1.00
435;DHT22;204;48.942;9.256;2023-02-23T03:11:16;9.90;1.00
435;DHT22;204;48.942;9.256;2023-02-23T03:19:55;9.70;1.00
435;DHT22;204;48.942;9.256;2023-02-23T03:26:04;9.70;1.00
435;DHT22;204;48.942;9.256;2023-02-23T03:32:11;9.60;1.00
435;DHT22;204;48.942;9.256;2023-02-23T03:35:05;9.50;1.00
435;DHT22;204;48.942;9.256;2023-02-23T03:37:56;9.50;1.00
435;DHT22;204;48.942;9.256;2023-02-23T03:40:45;9.50;1.00
435;DHT22;204;48.942;9.256;2023-02-23T03:43:35;9.40;1.00
435;DHT22;204;48.942;9.256;2023-02-23T03:46:23;9.40;1.00
435;DHT22;204;48.942;9.256;2023-02-23T03:49:09;9.40;1.00
435;DHT22;204;48.942;9.256;2023-02-23T03:52:03;9.40;1.00
435;DHT22;204;48.942;9.256;2023-02-23T03:55:20;9.50;1.00
435;DHT22;204;48.942;9.256;2023-02-23T03:58:10;9.50;1.00
435;DHT22;204;48.942;9.256;2023-02-23T04:00:58;9.50;1.00
435;DHT22;204;48.942;9.256;2023-02-23T04:03:45;9.60;1.00
435;DHT22;204;48.942;9.256;2023-02-23T04:06:35;9.60;1.00
435;DHT22;204;48.942;9.256;2023-02-23T04:09:19;9.70;1.00
435;DHT22;204;48.942;9.256;2023-02-23T04:15:16;9.80;1.00
435;DHT22;204;48.942;9.256;2023-02-23T04:17:43;9.80;1.00
435;DHT22;204;48.942;9.256;2023-02-23T04:20:12;9.90;1.00
435;DHT22;204;48.942;9.256;2023-02-23T04:22:38;9.90;1.00
435;DHT22;204;48.942;9.256;2023-02-23T04:25:04;9.90;1.00
435;DHT22;204;48.942;9.256;2023-02-23T04:27:36;10.00;1.00
435;DHT22;204;48.942;9.256;2023-02-23T04:30:02;10.00;1.00
435;DHT22;204;48.942;9.256;2023-02-23T04:32:28;10.00;1.00
435;DHT22;204;48.942;9.256;2023-02-23T04:34:54;10.00;1.00
435;DHT22;204;48.942;9.256;2023-02-23T04:37:20;10.00;1.00
435;DHT22;204;48.942;9.256;2023-02-23T04:39:45;10.10;1.00
435;DHT22;204;48.942;9.256;2023-02-23T04:42:15;10.10;1.00
435;DHT22;204;48.942;9.256;2023-02-23T04:44:41;10.10;1.00
435;DHT22;204;48.942;9.256;2023-02-23T04:47:06;10.00;1.00
435;DHT22;204;48.942;9.256;2023-02-23T04:49:32;10.10;1.00
435;DHT22;204;48.942;9.256;2023-02-23T04:51:57;10.10;1.00
435;DHT22;204;48.942;9.256;2023-02-23T04:54:24;10.10;1.00
435;DHT22;204;48.942;9.256;2023-02-23T04:56:50;10.10;1.00
435;DHT22;204;48.942;9.256;2023-02-23T04:59:15;10.00;1.00
435;DHT22;204;48.942;9.256;2023-02-23T05:01:41;10.10;1.00
435;DHT22;204;48.942;9.256;2023-02-23T05:04:06;10.00;1.00
435;DHT22;204;48.942;9.256;2023-02-23T05:06:32;10.10;1.00
435;DHT22;204;48.942;9.256;2023-02-23T05:08:58;10.10;1.00
435;DHT22;204;48.942;9.256;2023-02-23T05:11:24;10.10;1.00
435;DHT22;204;48.942;9.256;2023-02-23T05:13:50;10.10;1.00
435;DHT22;204;48.942;9.256;2023-02-23T05:16:16;10.00;1.00
435;DHT22;204;48.942;9.256;2023-02-23T05:18:42;10.10;1.00
435;DHT22;204;48.942;9.256;2023-02-23T05:21:09;10.00;1.00
435;DHT22;204;48.942;9.256;2023-02-23T05:23:35;10.00;1.00
435;DHT22;204;48.942;9.256;2023-02-23T05:26:06;10.00;1.00
435;DHT22;204;48.942;9.256;2023-02-23T05:28:33;10.00;1.00
435;DHT22;204;48.942;9.256;2023-02-23T05:30:59;10.00;1.00
435;DHT22;204;48.942;9.256;2023-02-23T05:33:25;10.00;1.00
435;DHT22;204;48.942;9.256;2023-02-23T05:35:51;10.00;1.00
435;DHT22;204;48.942;9.256;2023-02-23T05:38:17;10.00;1.00
435;DHT22;204;48.942;9.256;2023-02-23T05:40:44;10.00;1.00
435;DHT22;204;48.942;9.256;2023-02-23T05:43:09;10.00;1.00
435;DHT22;204;48.942;9.256;2023-02-23T05:45:39;10.00;1.00
435;DHT22;204;48.942;9.256;2023-02-23T05:48:06;10.00;1.00
435;DHT22;204;48.942;9.256;2023-02-23T05:50:32;10.00;1.00
435;DHT22;204;48.942;9.256;2023-02-23T05:52:57;10.00;1.00
435;DHT22;204;48.942;9.256;2023-02-23T05:55:23;10.00;1.00
435;DHT22;204;48.942;9.256;2023-02-23T05:57:48;10.00;1.00
435;DHT22;204;48.942;9.256;2023-02-23T06:00:15;10.00;1.00
435;DHT22;204;48.942;9.256;2023-02-23T06:02:40;10.00;1.00
435;DHT22;204;48.942;9.256;2023-02-23T06:05:07;10.00;1.00
435;DHT22;204;48.942;9.256;2023-02-23T06:07:33;10.00;1.00
435;DHT22;204;48.942;9.256;2023-02-23T06:09:59;10.00;1.00
435;DHT22;204;48.942;9.256;2023-02-23T06:12:24;10.00;1.00
435;DHT22;204;48.942;9.256;2023-02-23T06:14:50;10.00;1.00
435;DHT22;204;48.942;9.256;2023-02-23T06:17:16;10.00;1.00
435;DHT22;204;48.942;9.256;2023-02-23T06:19:41;10.00;1.00
435;DHT22;204;48.942;9.256;2023-02-23T06:22:07;10.10;1.00
435;DHT22;204;48.942;9.256;2023-02-23T06:24:33;10.10;1.00
435;DHT22;204;48.942;9.256;2023-02-23T06:26:59;10.10;1.00
435;DHT22;204;48.942;9.256;2023-02-23T06:29:24;10.00;1.00
435;DHT22;204;48.942;9.256;2023-02-23T06:31:50;10.00;1.00
435;DHT22;204;48.942;9.256;2023-02-23T06:34:15;9.90;1.00
435;DHT22;204;48.942;9.256;2023-02-23T06:36:41;9.90;1.00
435;DHT22;204;48.942;9.256;2023-02-23T06:39:08;9.90;1.00
435;DHT22;204;48.942;9.256;2023-02-23T06:41:34;9.90;1.00
435;DHT22;204;48.942;9.256;2023-02-23T06:44:00;9.90;1.00
435;DHT22;204;48.942;9.256;2023-02-23T06:46:26;9.90;1.00
435;DHT22;204;48.942;9.256;2023-02-23T06:48:55;9.90;1.00
435;DHT22;204;48.942;9.256;2023-02-23T06:51:21;9.90;1.00
435;DHT22;204;48.942;9.256;2023-02-23T06:53:46;9.90;1.00
435;DHT22;204;48.942;9.256;2023-02-23T06:56:12;9.90;1.00
435;DHT22;204;48.942;9.256;2023-02-23T06:58:41;9.90;1.00
435;DHT22;204;48.942;9.256;2023-02-23T07:01:07;9.90;1.00
435;DHT22;204;48.942;9.256;2023-02-23T07:03:34;9.90;1.00
435;DHT22;204;48.942;9.256;2023-02-23T07:06:00;9.80;1.00
435;DHT22;204;48.942;9.256;2023-02-23T07:08:26;9.80;1.00
435;DHT22;204;48.942;9.256;2023-02-23T07:10:51;9.90;1.00
435;DHT22;204;48.942;9.256;2023-02-23T07:13:17;9.90;1.00
435;DHT22;204;48.942;9.256;2023-02-23T07:15:44;9.90;1.00
435;DHT22;204;48.942;9.256;2023-02-23T07:18:10;9.90;1.00
435;DHT22;204;48.942;9.256;2023-02-23T07:20:36;9.90;1.00
435;DHT22;204;48.942;9.256;2023-02-23T07:23:01;10.00;1.00
435;DHT22;204;48.942;9.256;2023-02-23T07:25:27;10.10;1.00
435;DHT22;204;48.942;9.256;2023-02-23T07:27:53;10.10;1.00
435;DHT22;204;48.942;9.256;2023-02-23T07:30:20;10.20;1.00
435;DHT22;204;48.942;9.256;2023-02-23T07:32:52;10.30;1.00
435;DHT22;204;48.942;9.256;2023-02-23T07:35:18;10.30;1.00
435;DHT22;204;48.942;9.256;2023-02-23T07:37:44;10.40;1.00
435;DHT22;204;48.942;9.256;2023-02-23T07:40:10;10.50;1.00
435;DHT22;204;48.942;9.256;2023-02-23T07:42:36;10.60;1.00
435;DHT22;204;48.942;9.256;2023-02-23T07:45:02;10.70;1.00
435;DHT22;204;48.942;9.256;2023-02-23T07:47:28;10.80;1.00
435;DHT22;204;48.942;9.256;2023-02-23T07:49:58;10.90;1.00
435;DHT22;204;48.942;9.256;2023-02-23T07:52:25;11.00;1.00
435;DHT22;204;48.942;9.256;2023-02-23T07:54:50;11.10;1.00
435;DHT22;204;48.942;9.256;2023-02-23T07:57:16;11.20;1.00
435;DHT22;204;48.942;9.256;2023-02-23T07:59:42;11.30;1.00
435;DHT22;204;48.942;9.256;2023-02-23T08:02:10;11.40;1.00
435;DHT22;204;48.942;9.256;2023-02-23T08:04:37;11.40;1.00
435;DHT22;204;48.942;9.256;2023-02-23T08:07:03;11.50;1.00
435;DHT22;204;48.942;9.256;2023-02-23T08:09:28;11.60;1.00
435;DHT22;204;48.942;9.256;2023-02-23T08:11:57;11.70;1.00
435;DHT22;204;48.942;9.256;2023-02-23T08:14:22;11.80;1.00
435;DHT22;204;48.942;9.256;2023-02-23T08:16:48;11.90;1.00
435;DHT22;204;48.942;9.256;2023-02-23T08:19:14;12.00;1.00
435;DHT22;204;48.942;9.256;2023-02-23T08:21:39;12.10;1.00
435;DHT22;204;48.942;9.256;2023-02-23T08:24:07;12.20;1.00
435;DHT22;204;48.942;9.256;2023-02-23T08:26:36;12.30;1.00
435;DHT22;204;48.942;9.256;2023-02-23T08:29:05;12.40;1.00
435;DHT22;204;48.942;9.256;2023-02-23T08:31:30;12.40;1.00
435;DHT22;204;48.942;9.256;2023-02-23T08:33:57;12.60;1.00
435;DHT22;204;48.942;9.256;2023-02-23T08:36:22;12.60;1.00
435;DHT22;204;48.942;9.256;2023-02-23T08:38:48;12.70;1.00
435;DHT22;204;48.942;9.256;2023-02-23T08:41:14;12.70;1.00
435;DHT22;204;48.942;9.256;2023-02-23T08:43:39;12.80;1.00
435;DHT22;204;48.942;9.256;2023-02-23T08:46:06;13.00;1.00
435;DHT22;204;48.942;9.256;2023-02-23T08:48:32;13.10;1.00
435;DHT22;204;48.942;9.256;2023-02-23T08:50:58;13.20;1.00
435;DHT22;204;48.942;9.256;2023-02-23T08:53:25;13.30;1.00
435;DHT22;204;48.942;9.256;2023-02-23T08:55:59;13.50;1.00
435;DHT22;204;48.942;9.256;2023-02-23T08:58:25;13.60;1.00
435;DHT22;204;48.942;9.256;2023-02-23T09:00:51;13.70;1.00
435;DHT22;204;48.942;9.256;2023-02-23T09:03:19;13.80;1.00
435;DHT22;204;48.942;9.256;2023-02-23T09:05:44;13.80;1.00
435;DHT22;204;48.942;9.256;2023-02-23T09:08:12;13.90;1.00
435;DHT22;204;48.942;9.256;2023-02-23T09:10:38;14.00;1.00
435;DHT22;204;48.942;9.256;2023-02-23T09:13:03;14.10;1.00
435;DHT22;204;48.942;9.256;2023-02-23T09:15:29;14.30;1.00
435;DHT22;204;48.942;9.256;2023-02-23T09:17:59;14.40;1.00
435;DHT22;204;48.942;9.256;2023-02-23T09:20:25;14.60;1.00
435;DHT22;204;48.942;9.256;2023-02-23T09:22:51;14.90;1.00
435;DHT22;204;48.942;9.256;2023-02-23T09:25:18;15.10;1.00
435;DHT22;204;48.942;9.256;2023-02-23T09:27:47;15.30;1.00
435;DHT22;204;48.942;9.256;2023-02-23T09:30:15;15.50;1.00
435;DHT22;204;48.942;9.256;2023-02-23T09:32:52;15.80;1.00
435;DHT22;204;48.942;9.256;2023-02-23T09:35:19;15.90;1.00
435;DHT22;204;48.942;9.256;2023-02-23T09:37:51;16.00;1.00
435;DHT22;204;48.942;9.256;2023-02-23T09:40:21;16.00;1.00
435;DHT22;204;48.942;9.256;2023-02-23T09:43:03;16.10;1.00
435;DHT22;204;48.942;9.256;2023-02-23T09:48:20;16.20;1.00
435;DHT22;204;48.942;9.256;2023-02-23T09:50:50;16.10;1.00
435;DHT22;204;48.942;9.256;2023-02-23T09:53:52;16.00;1.00
435;DHT22;204;48.942;9.256;2023-02-23T09:56:37;16.00;1.00
435;DHT22;204;48.942;9.256;2023-02-23T09:59:05;15.90;1.00
435;DHT22;204;48.942;9.256;2023-02-23T10:01:57;15.80;1.00
435;DHT22;204;48.942;9.256;2023-02-23T10:04:25;15.80;1.00
435;DHT22;204;48.942;9.256;2023-02-23T10:20:23;15.40;1.00
435;DHT22;204;48.942;9.256;2023-02-23T10:22:53;15.40;1.00
435;DHT22;204;48.942;9.256;2023-02-23T10:25:24;15.40;1.00
435;DHT22;204;48.942;9.256;2023-02-23T10:27:52;15.40;1.00
435;DHT22;204;48.942;9.256;2023-02-23T10:30:26;15.30;1.00
435;DHT22;204;48.942;9.256;2023-02-23T10:35:44;15.50;1.00
435;DHT22;204;48.942;9.256;2023-02-23T10:38:17;15.70;1.00
435;DHT22;204;48.942;9.256;2023-02-23T10:40:48;15.90;1.00
435;DHT22;204;48.942;9.256;2023-02-23T10:43:14;16.10;1.00
435;DHT22;204;48.942;9.256;2023-02-23T10:45:45;16.30;1.00
435;DHT22;204;48.942;9.256;2023-02-23T10:48:24;16.40;1.00
435;DHT22;204;48.942;9.256;2023-02-23T10:50:53;16.60;1.00
435;DHT22;204;48.942;9.256;2023-02-23T10:53:25;16.80;1.00
435;DHT22;204;48.942;9.256;2023-02-23T10:56:06;16.90;1.00
435;DHT22;204;48.942;9.256;2023-02-23T10:58:50;17.00;1.00
435;DHT22;204;48.942;9.256;2023-02-23T11:01:39;17.20;1.00
435;DHT22;204;48.942;9.256;2023-02-23T11:04:32;17.40;1.00
435;DHT22;204;48.942;9.256;2023-02-23T11:07:14;17.60;1.00
435;DHT22;204;48.942;9.256;2023-02-23T11:09:40;17.70;1.00
435;DHT22;204;48.942;9.256;2023-02-23T11:14:51;17.90;1.00
435;DHT22;204;48.942;9.256;2023-02-23T11:19:48;18.20;1.00
435;DHT22;204;48.942;9.256;2023-02-23T11:22:19;18.40;1.00
435;DHT22;204;48.942;9.256;2023-02-23T11:24:47;18.50;1.00
435;DHT22;204;48.942;9.256;2023-02-23T11:27:23;18.50;1.00
435;DHT22;204;48.942;9.256;2023-02-23T11:29:50;18.50;1.00
435;DHT22;204;48.942;9.256;2023-02-23T11:32:21;18.50;1.00
435;DHT22;204;48.942;9.256;2023-02-23T11:37:45;18.70;1.00
435;DHT22;204;48.942;9.256;2023-02-23T11:43:13;18.70;1.00
435;DHT22;204;48.942;9.256;2023-02-23T11:45:53;18.70;1.00
435;DHT22;204;48.942;9.256;2023-02-23T11:49:00;18.60;1.00
435;DHT22;204;48.942;9.256;2023-02-23T11:51:38;18.70;1.00
435;DHT22;204;48.942;9.256;2023-02-23T11:54:06;18.80;1.00
435;DHT22;204;48.942;9.256;2023-02-23T11:56:47;18.80;1.00
435;DHT22;204;48.942;9.256;2023-02-23T11:59:17;18.90;1.00
435;DHT22;204;48.942;9.256;2023-02-23T12:01:47;18.80;1.00
435;DHT22;204;48.942;9.256;2023-02-23T12:09:40;18.70;1.00
435;DHT22;204;48.942;9.256;2023-02-23T12:12:14;18.60;1.00
435;DHT22;204;48.942;9.256;2023-02-23T12:14:50;18.40;1.00
435;DHT22;204;48.942;9.256;2023-02-23T12:17:26;18.30;1.00
435;DHT22;204;48.942;9.256;2023-02-23T12:22:41;18.00;1.00
435;DHT22;204;48.942;9.256;2023-02-23T12:25:22;18.00;1.00
435;DHT22;204;48.942;9.256;2023-02-23T12:28:19;17.90;1.00
435;DHT22;204;48.942;9.256;2023-02-23T12:30:57;17.60;1.00
435;DHT22;204;48.942;9.256;2023-02-23T12:36:19;17.50;1.00
435;DHT22;204;48.942;9.256;2023-02-23T12:41:34;17.40;1.00
435;DHT22;204;48.942;9.256;2023-02-23T12:47:12;17.60;1.00
435;DHT22;204;48.942;9.256;2023-02-23T12:50:08;17.60;1.00
435;DHT22;204;48.942;9.256;2023-02-23T12:55:49;17.80;1.00
435;DHT22;204;48.942;9.256;2023-02-23T12:58:23;17.90;1.00
435;DHT22;204;48.942;9.256;2023-02-23T13:01:01;18.00;1.00
435;DHT22;204;48.942;9.256;2023-02-23T13:14:18;18.10;1.00
435;DHT22;204;48.942;9.256;2023-02-23T13:16:50;18.20;1.00
435;DHT22;204;48.942;9.256;2023-02-23T13:19:28;18.20;1.00
435;DHT22;204;48.942;9.256;2023-02-23T13:24:35;18.00;1.00
435;DHT22;204;48.942;9.256;2023-02-23T13:27:22;18.00;1.00
435;DHT22;204;48.942;9.256;2023-02-23T13:29:51;17.90;1.00
435;DHT22;204;48.942;9.256;2023-02-23T13:32:21;17.70;1.00
435;DHT22;204;48.942;9.256;2023-02-23T13:34:51;17.70;1.00
435;DHT22;204;48.942;9.256;2023-02-23T13:37:21;17.60;1.00
435;DHT22;204;48.942;9.256;2023-02-23T13:48:33;17.30;1.00
435;DHT22;204;48.942;9.256;2023-02-23T13:53:58;17.20;1.00
435;DHT22;204;48.942;9.256;2023-02-23T13:56:30;17.20;1.00
435;DHT22;204;48.942;9.256;2023-02-23T13:59:03;17.00;1.00
435;DHT22;204;48.942;9.256;2023-02-23T14:01:32;16.80;1.00
435;DHT22;204;48.942;9.256;2023-02-23T14:04:03;16.70;1.00
435;DHT22;204;48.942;9.256;2023-02-23T14:06:33;16.50;1.00
435;DHT22;204;48.942;9.256;2023-02-23T14:09:12;16.50;1.00
435;DHT22;204;48.942;9.256;2023-02-23T14:22:29;16.60;1.00
435;DHT22;204;48.942;9.256;2023-02-23T14:28:00;16.70;1.00
435;DHT22;204;48.942;9.256;2023-02-23T14:30:43;16.70;1.00
435;DHT22;204;48.942;9.256;2023-02-23T14:43:54;16.70;1.00
435;DHT22;204;48.942;9.256;2023-02-23T14:46:24;16.70;1.00
435;DHT22;204;48.942;9.256;2023-02-23T14:49:05;16.70;1.00
435;DHT22;204;48.942;9.256;2023-02-23T14:51:39;16.50;1.00
435;DHT22;204;48.942;9.256;2023-02-23T14:54:34;16.50;1.00
435;DHT22;204;48.942;9.256;2023-02-23T14:57:02;16.40;1.00
435;DHT22;204;48.942;9.256;2023-02-23T14:59:39;16.40;1.00
435;DHT22;204;48.942;9.256;2023-02-23T15:02:17;16.30;1.00
435;DHT22;204;48.942;9.256;2023-02-23T15:04:44;16.20;1.00
435;DHT22;204;48.942;9.256;2023-02-23T15:09:56;16.00;1.00
435;DHT22;204;48.942;9.256;2023-02-23T15:12:43;15.90;1.00
435;DHT22;204;48.942;9.256;2023-02-23T15:15:17;15.90;1.00
435;DHT22;204;48.942;9.256;2023-02-23T15:17:46;15.80;1.00
435;DHT22;204;48.942;9.256;2023-02-23T15:20:18;15.80;1.00
435;DHT22;204;48.942;9.256;2023-02-23T15:22:51;15.70;1.00
435;DHT22;204;48.942;9.256;2023-02-23T15:25:23;15.70;1.00
435;DHT22;204;48.942;9.256;2023-02-23T15:27:50;15.60;1.00
435;DHT22;204;48.942;9.256;2023-02-23T15:32:59;15.60;1.00
435;DHT22;204;48.942;9.256;2023-02-23T15:35:25;15.50;1.00
435;DHT22;204;48.942;9.256;2023-02-23T15:37:51;15.50;1.00
435;DHT22;204;48.942;9.256;2023-02-23T15:40:21;15.50;1.00
435;DHT22;204;48.942;9.256;2023-02-23T15:42:51;15.50;1.00
435;DHT22;204;48.942;9.256;2023-02-23T15:48:01;15.40;1.00
435;DHT22;204;48.942;9.256;2023-02-23T15:50:31;15.40;1.00
435;DHT22;204;48.942;9.256;2023-02-23T15:53:22;15.30;1.00
435;DHT22;204;48.942;9.256;2023-02-23T15:55:54;15.20;1.00
435;DHT22;204;48.942;9.256;2023-02-23T15:58:23;15.10;1.00
435;DHT22;204;48.942;9.256;2023-02-23T16:00:59;15.00;1.00
435;DHT22;204;48.942;9.256;2023-02-23T16:03:35;15.00;1.00
435;DHT22;204;48.942;9.256;2023-02-23T16:06:06;14.90;1.00
435;DHT22;204;48.942;9.256;2023-02-23T16:08:33;14.80;1.00
435;DHT22;204;48.942;9.256;2023-02-23T16:11:08;14.70;1.00
435;DHT22;204;48.942;9.256;2023-02-23T16:13:36;14.70;1.00
435;DHT22;204;48.942;9.256;2023-02-23T16:16:04;14.70;1.00
435;DHT22;204;48.942;9.256;2023-02-23T16:18:40;14.60;1.00
435;DHT22;204;48.942;9.256;2023-02-23T16:21:14;14.60;1.00
435;DHT22;204;48.942;9.256;2023-02-23T16:23:44;14.60;1.00
435;DHT22;204;48.942;9.256;2023-02-23T16:26:44;14.60;1.00
435;DHT22;204;48.942;9.256;2023-02-23T16:29:14;14.50;1.00
435;DHT22;204;48.942;9.256;2023-02-23T16:31:48;14.50;1.00
435;DHT22;204;48.942;9.256;2023-02-23T16:36:50;14.40;1.00
435;DHT22;204;48.942;9.256;2023-02-23T16:39:18;14.30;1.00
435;DHT22;204;48.942;9.256;2023-02-23T16:41:44;14.20;1.00
435;DHT22;204;48.942;9.256;2023-02-23T16:44:16;14.20;1.00
435;DHT22;204;48.942;9.256;2023-02-23T16:49:26;14.00;1.00
435;DHT22;204;48.942;9.256;2023-02-23T16:51:55;14.00;1.00
435;DHT22;204;48.942;9.256;2023-02-23T16:54:21;13.90;1.00
435;DHT22;204;48.942;9.256;2023-02-23T16:56:47;13.80;1.00
435;DHT22;204;48.942;9.256;2023-02-23T16:59:16;13.70;1.00
435;DHT22;204;48.942;9.256;2023-02-23T17:01:43;13.50;1.00
435;DHT22;204;48.942;9.256;2023-02-23T17:04:16;13.40;1.00
435;DHT22;204;48.942;9.256;2023-02-23T17:06:42;13.30;1.00
435;DHT22;204;48.942;9.256;2023-02-23T17:09:09;13.20;1.00
435;DHT22;204;48.942;9.256;2023-02-23T17:11:35;13.10;1.00
435;DHT22;204;48.942;9.256;2023-02-23T17:14:01;13.10;1.00
435;DHT22;204;48.942;9.256;2023-02-23T17:16:26;13.00;1.00
435;DHT22;204;48.942;9.256;2023-02-23T17:18:52;12.90;1.00
435;DHT22;204;48.942;9.256;2023-02-23T17:21:18;12.90;1.00
435;DHT22;204;48.942;9.256;2023-02-23T17:23:50;12.90;1.00
435;DHT22;204;48.942;9.256;2023-02-23T17:26:19;12.90;1.00
435;DHT22;204;48.942;9.256;2023-02-23T17:28:45;12.90;1.00
435;DHT22;204;48.942;9.256;2023-02-23T17:31:11;12.90;1.00
435;DHT22;204;48.942;9.256;2023-02-23T17:33:39;12.90;1.00
435;DHT22;204;48.942;9.256;2023-02-23T17:36:08;12.90;1.00
435;DHT22;204;48.942;9.256;2023-02-23T17:38:35;12.80;1.00
435;DHT22;204;48.942;9.256;2023-02-23T17:41:02;12.80;1.00
435;DHT22;204;48.942;9.256;2023-02-23T17:43:28;12.80;1.00
435;DHT22;204;48.942;9.256;2023-02-23T17:45:54;12.80;1.00
435;DHT22;204;48.942;9.256;2023-02-23T17:48:21;12.80;1.00
435;DHT22;204;48.942;9.256;2023-02-23T17:50:47;12.70;1.00
435;DHT22;204;48.942;9.256;2023-02-23T17:53:13;12.70;1.00
435;DHT22;204;48.942;9.256;2023-02-23T17:55:38;12.70;1.00
435;DHT22;204;48.942;9.256;2023-02-23T17:58:04;12.70;1.00
435;DHT22;204;48.942;9.256;2023-02-23T18:00:29;12.70;1.00
435;DHT22;204;48.942;9.256;2023-02-23T18:02:59;12.70;1.00
435;DHT22;204;48.942;9.256;2023-02-23T18:05:25;12.70;1.00
435;DHT22;204;48.942;9.256;2023-02-23T18:07:51;12.70;1.00
435;DHT22;204;48.942;9.256;2023-02-23T18:10:16;12.60;1.00
435;DHT22;204;48.942;9.256;2023-02-23T18:12:42;12.60;1.00
435;DHT22;204;48.942;9.256;2023-02-23T18:15:08;12.60;1.00
435;DHT22;204;48.942;9.256;2023-02-23T18:17:33;12.60;1.00
435;DHT22;204;48.942;9.256;2023-02-23T18:20:02;12.60;1.00
435;DHT22;204;48.942;9.256;2023-02-23T18:22:28;12.60;1.00
435;DHT22;204;48.942;9.256;2023-02-23T18:24:53;12.60;1.00
435;DHT22;204;48.942;9.256;2023-02-23T18:27:19;12.60;1.00
435;DHT22;204;48.942;9.256;2023-02-23T18:29:44;12.50;1.00
435;DHT22;204;48.942;9.256;2023-02-23T18:32:10;12.50;1.00
435;DHT22;204;48.942;9.256;2023-02-23T18:34:36;12.50;1.00
435;DHT22;204;48.942;9.256;2023-02-23T18:37:02;12.50;1.00
435;DHT22;204;48.942;9.256;2023-02-23T18:39:29;12.50;1.00
435;DHT22;204;48.942;9.256;2023-02-23T18:41:56;12.50;1.00
435;DHT22;204;48.942;9.256;2023-02-23T18:44:22;12.50;1.00
435;DHT22;204;48.942;9.256;2023-02-23T18:46:48;12.40;1.00
435;DHT22;204;48.942;9.256;2023-02-23T18:49:21;12.40;1.00
435;DHT22;204;48.942;9.256;2023-02-23T18:51:48;12.40;1.00
435;DHT22;204;48.942;9.256;2023-02-23T18:54:13;12.40;1.00
435;DHT22;204;48.942;9.256;2023-02-23T18:56:44;12.30;1.00
435;DHT22;204;48.942;9.256;2023-02-23T18:59:10;12.30;1.00
435;DHT22;204;48.942;9.256;2023-02-23T19:01:36;12.20;1.00
435;DHT22;204;48.942;9.256;2023-02-23T19:04:05;12.20;1.00
435;DHT22;204;48.942;9.256;2023-02-23T19:06:31;12.10;1.00
435;DHT22;204;48.942;9.256;2023-02-23T19:08:58;12.10;1.00
435;DHT22;204;48.942;9.256;2023-02-23T19:11:27;12.00;1.00
435;DHT22;204;48.942;9.256;2023-02-23T19:13:55;11.90;1.00
435;DHT22;204;48.942;9.256;2023-02-23T19:16:22;11.90;1.00
435;DHT22;204;48.942;9.256;2023-02-23T19:18:48;11.80;1.00
435;DHT22;204;48.942;9.256;2023-02-23T19:21:14;11.70;1.00
435;DHT22;204;48.942;9.256;2023-02-23T19:23:40;11.70;1.00
435;DHT22;204;48.942;9.256;2023-02-23T19:26:06;11.70;1.00
435;DHT22;204;48.942;9.256;2023-02-23T19:28:32;11.60;1.00
435;DHT22;204;48.942;9.256;2023-02-23T19:31:05;11.60;1.00
435;DHT22;204;48.942;9.256;2023-02-23T19:33:32;11.60;1.00
435;DHT22;204;48.942;9.256;2023-02-23T19:35:58;11.50;1.00
435;DHT22;204;48.942;9.256;2023-02-23T19:38:27;11.50;1.00
435;DHT22;204;48.942;9.256;2023-02-23T19:40:53;11.50;1.00
435;DHT22;204;48.942;9.256;2023-02-23T19:43:18;11.40;1.00
435;DHT22;204;48.942;9.256;2023-02-23T19:45:44;11.50;1.00
435;DHT22;204;48.942;9.256;2023-02-23T19:48:11;11.40;1.00